Time;durP1;ratioP1;P1;durP2;ratioP2;P2;SDS_P1;SDS_P2;PMS_P1;PMS_P2;Temp;Humidity;BMP_temperature;BMP_pressure;BME280_temperature;BME280_humidity;BME280_pressure;Samples;Min_cycle;Max_cycle;Signal;HPM_P1;HPM_P2
2021/02/15 00:02:25;;;;;;;1.91;1.69;;;;;;;17.32;38.48;102209.16;;;;-50
2021/02/15 00:05:25;;;;;;;2.03;1.83;;;;;;;17.29;38.49;102203.37;;;;-54
2021/02/15 00:08:25;;;;;;;1.77;1.67;;;;;;;17.27;38.39;102196.00;;;;-51
2021/02/15 00:11:25;;;;;;;1.86;1.71;;;;;;;17.25;38.43;102190.16;;;;-52
2021/02/15 00:14:25;;;;;;;2.01;1.80;;;;;;;17.23;38.44;102177.58;;;;-51
2021/02/15 00:17:25;;;;;;;2.05;1.76;;;;;;;17.20;38.50;102172.01;;;;-52
2021/02/15 00:20:25;;;;;;;1.87;1.76;;;;;;;17.18;38.53;102171.44;;;;-50
2021/02/15 00:23:25;;;;;;;1.88;1.71;;;;;;;17.15;38.41;102171.01;;;;-52
2021/02/15 00:26:25;;;;;;;1.91;1.75;;;;;;;17.13;38.44;102164.59;;;;-50
2021/02/15 00:29:25;;;;;;;1.86;1.70;;;;;;;17.11;38.53;102159.65;;;;-53
2021/02/15 00:32:25;;;;;;;2.00;1.80;;;;;;;17.09;38.43;102152.11;;;;-53
2021/02/15 00:35:25;;;;;;;2.08;1.88;;;;;;;17.06;38.43;102160.99;;;;-53
2021/02/15 00:38:25;;;;;;;1.81;1.71;;;;;;;17.04;38.52;102165.91;;;;-50
2021/02/15 00:41:25;;;;;;;1.81;1.67;;;;;;;17.02;38.48;102166.97;;;;-52
2021/02/15 00:44:25;;;;;;;1.81;1.71;;;;;;;17.01;38.49;102175.73;;;;-50
2021/02/15 00:47:25;;;;;;;2.01;1.86;;;;;;;16.98;38.56;102172.94;;;;-53
2021/02/15 00:50:25;;;;;;;1.81;1.67;;;;;;;16.96;38.56;102171.64;;;;-51
2021/02/15 00:53:25;;;;;;;1.82;1.72;;;;;;;16.95;38.52;102173.67;;;;-53
2021/02/15 00:56:25;;;;;;;1.96;1.80;;;;;;;16.91;38.59;102174.34;;;;-52
2021/02/15 00:59:25;;;;;;;1.73;1.63;;;;;;;16.91;38.50;102175.27;;;;-50
2021/02/15 01:02:25;;;;;;;2.15;1.77;;;;;;;16.89;38.51;102177.45;;;;-52
2021/02/15 01:05:25;;;;;;;1.79;1.69;;;;;;;16.87;38.60;102182.63;;;;-52
2021/02/15 01:08:25;;;;;;;2.09;1.89;;;;;;;16.86;38.49;102183.27;;;;-53
2021/02/15 01:11:25;;;;;;;2.10;1.90;;;;;;;16.83;38.59;102184.51;;;;-52
2021/02/15 01:14:25;;;;;;;1.83;1.73;;;;;;;16.81;38.63;102184.97;;;;-53
2021/02/15 01:17:25;;;;;;;1.84;1.68;;;;;;;16.79;38.60;102188.98;;;;-54
2021/02/15 01:20:25;;;;;;;2.00;1.81;;;;;;;16.77;38.54;102185.02;;;;-51
2021/02/15 01:23:26;;;;;;;1.94;1.77;;;;;;;16.76;38.63;102188.53;;;;-52
2021/02/15 01:26:25;;;;;;;1.72;1.62;;;;;;;16.75;38.56;102193.17;;;;-53
2021/02/15 01:29:25;;;;;;;1.95;1.76;;;;;;;16.73;38.60;102192.99;;;;-50
2021/02/15 01:32:25;;;;;;;1.81;1.71;;;;;;;16.71;38.49;102190.14;;;;-52
2021/02/15 01:35:25;;;;;;;1.93;1.67;;;;;;;16.68;38.63;102190.23;;;;-51
2021/02/15 01:38:25;;;;;;;1.83;1.73;;;;;;;16.65;38.63;102187.30;;;;-51
2021/02/15 01:41:25;;;;;;;1.78;1.68;;;;;;;16.64;38.55;102193.77;;;;-51
2021/02/15 01:44:25;;;;;;;1.90;1.80;;;;;;;16.63;38.66;102195.45;;;;-50
2021/02/15 01:47:25;;;;;;;2.05;1.83;;;;;;;16.60;38.55;102189.19;;;;-52
2021/02/15 01:50:25;;;;;;;1.71;1.61;;;;;;;16.59;38.64;102183.93;;;;-52
2021/02/15 01:53:25;;;;;;;1.69;1.59;;;;;;;16.57;38.52;102181.19;;;;-51
2021/02/15 01:56:25;;;;;;;2.07;1.87;;;;;;;16.56;38.51;102178.23;;;;-52
2021/02/15 01:59:25;;;;;;;2.03;1.73;;;;;;;16.55;38.51;102174.28;;;;-52
2021/02/15 02:02:25;;;;;;;1.73;1.63;;;;;;;16.53;38.52;102171.84;;;;-52
2021/02/15 02:05:25;;;;;;;1.94;1.62;;;;;;;16.52;38.52;102170.92;;;;-51
2021/02/15 02:08:25;;;;;;;1.93;1.74;;;;;;;16.51;38.55;102162.52;;;;-50
2021/02/15 02:11:25;;;;;;;2.09;1.71;;;;;;;16.49;38.54;102156.84;;;;-53
2021/02/15 02:14:25;;;;;;;1.94;1.79;;;;;;;16.47;38.49;102152.16;;;;-53
2021/02/15 02:17:25;;;;;;;2.24;1.87;;;;;;;16.46;38.52;102155.20;;;;-53
2021/02/15 02:20:25;;;;;;;1.69;1.59;;;;;;;16.45;38.64;102151.47;;;;-52
2021/02/15 02:23:25;;;;;;;1.73;1.60;;;;;;;16.44;38.49;102155.02;;;;-52
2021/02/15 02:26:25;;;;;;;1.87;1.73;;;;;;;16.43;38.44;102150.50;;;;-53
2021/02/15 02:29:25;;;;;;;1.89;1.69;;;;;;;16.41;38.42;102145.70;;;;-53
2021/02/15 02:32:26;;;;;;;1.90;1.70;;;;;;;16.40;38.51;102146.34;;;;-53
2021/02/15 02:35:25;;;;;;;1.91;1.70;;;;;;;16.39;38.43;102141.34;;;;-54
2021/02/15 02:38:25;;;;;;;2.01;1.81;;;;;;;16.36;38.49;102137.50;;;;-50
2021/02/15 02:41:25;;;;;;;1.85;1.71;;;;;;;16.36;38.47;102130.59;;;;-50
2021/02/15 02:44:25;;;;;;;2.35;1.81;;;;;;;16.34;38.43;102129.31;;;;-50
2021/02/15 02:47:25;;;;;;;1.74;1.64;;;;;;;16.33;38.49;102125.89;;;;-50
2021/02/15 02:50:25;;;;;;;2.02;1.81;;;;;;;16.32;38.48;102129.05;;;;-52
2021/02/15 02:53:25;;;;;;;2.38;1.62;;;;;;;16.31;38.49;102125.70;;;;-55
2021/02/15 02:56:25;;;;;;;1.75;1.61;;;;;;;16.28;38.45;102120.13;;;;-53
2021/02/15 02:59:25;;;;;;;1.95;1.75;;;;;;;16.27;38.48;102115.89;;;;-53
2021/02/15 03:02:25;;;;;;;1.70;1.60;;;;;;;16.26;38.49;102118.56;;;;-52
2021/02/15 03:05:25;;;;;;;1.80;1.70;;;;;;;16.25;38.52;102119.75;;;;-50
2021/02/15 03:08:25;;;;;;;2.34;1.69;;;;;;;16.23;38.41;102109.88;;;;-50
2021/02/15 03:11:25;;;;;;;1.74;1.64;;;;;;;16.23;38.52;102111.77;;;;-53
2021/02/15 03:14:25;;;;;;;1.79;1.69;;;;;;;16.21;38.45;102105.69;;;;-53
2021/02/15 03:17:25;;;;;;;1.70;1.60;;;;;;;16.20;38.54;102094.91;;;;-54
2021/02/15 03:20:25;;;;;;;1.80;1.70;;;;;;;16.18;38.42;102098.23;;;;-53
2021/02/15 03:23:25;;;;;;;1.81;1.70;;;;;;;16.17;38.42;102087.36;;;;-50
2021/02/15 03:26:25;;;;;;;1.96;1.75;;;;;;;16.17;38.54;102078.94;;;;-52
2021/02/15 03:29:25;;;;;;;2.01;1.67;;;;;;;16.15;38.44;102071.09;;;;-52
2021/02/15 03:32:25;;;;;;;1.70;1.60;;;;;;;16.13;38.44;102063.97;;;;-51
2021/02/15 03:35:25;;;;;;;1.73;1.63;;;;;;;16.12;38.37;102068.41;;;;-54
2021/02/15 03:38:25;;;;;;;1.79;1.59;;;;;;;16.10;38.34;102069.94;;;;-53
2021/02/15 03:41:25;;;;;;;1.91;1.72;;;;;;;16.10;38.44;102067.67;;;;-52
2021/02/15 03:44:25;;;;;;;1.71;1.59;;;;;;;16.08;38.53;102058.36;;;;-52
2021/02/15 03:47:25;;;;;;;1.81;1.70;;;;;;;16.06;38.43;102049.67;;;;-53
2021/02/15 03:50:25;;;;;;;1.61;1.51;;;;;;;16.06;38.38;102049.46;;;;-52
2021/02/15 03:53:25;;;;;;;1.71;1.61;;;;;;;16.05;38.44;102046.45;;;;-52
2021/02/15 03:56:25;;;;;;;1.67;1.57;;;;;;;16.04;38.41;102047.98;;;;-52
2021/02/15 03:59:25;;;;;;;1.64;1.53;;;;;;;16.02;38.48;102047.94;;;;-53
2021/02/15 04:02:25;;;;;;;1.70;1.60;;;;;;;16.01;38.47;102042.77;;;;-51
2021/02/15 04:05:25;;;;;;;1.62;1.52;;;;;;;16.00;38.36;102040.84;;;;-51
2021/02/15 04:08:25;;;;;;;1.69;1.59;;;;;;;15.99;38.47;102036.20;;;;-51
2021/02/15 04:11:25;;;;;;;1.80;1.70;;;;;;;15.98;38.39;102040.83;;;;-50
2021/02/15 04:14:25;;;;;;;1.78;1.68;;;;;;;15.96;38.39;102039.23;;;;-50
2021/02/15 04:17:25;;;;;;;1.67;1.57;;;;;;;15.94;38.44;102030.91;;;;-52
2021/02/15 04:20:25;;;;;;;1.70;1.60;;;;;;;15.94;38.40;102028.00;;;;-52
2021/02/15 04:23:26;;;;;;;1.89;1.54;;;;;;;15.94;38.42;102030.25;;;;-50
2021/02/15 04:26:25;;;;;;;1.84;1.69;;;;;;;15.93;38.38;102033.82;;;;-51
2021/02/15 04:29:25;;;;;;;1.85;1.60;;;;;;;15.91;38.46;102034.70;;;;-51
2021/02/15 04:32:25;;;;;;;1.83;1.72;;;;;;;15.91;38.39;102034.63;;;;-52
2021/02/15 04:35:25;;;;;;;1.61;1.51;;;;;;;15.89;38.42;102027.50;;;;-50
2021/02/15 04:38:25;;;;;;;1.83;1.61;;;;;;;15.88;38.39;102023.98;;;;-50
2021/02/15 04:41:25;;;;;;;1.85;1.65;;;;;;;15.87;38.44;102024.82;;;;-50
2021/02/15 04:44:25;;;;;;;1.73;1.63;;;;;;;15.87;38.48;102024.25;;;;-51
2021/02/15 04:47:25;;;;;;;1.72;1.55;;;;;;;15.85;38.42;102018.58;;;;-53
2021/02/15 04:50:25;;;;;;;1.81;1.71;;;;;;;15.84;38.37;102011.03;;;;-52
2021/02/15 04:53:25;;;;;;;1.79;1.57;;;;;;;15.84;38.45;102013.45;;;;-53
2021/02/15 04:56:25;;;;;;;1.83;1.57;;;;;;;15.83;38.49;102026.80;;;;-52
2021/02/15 04:59:25;;;;;;;1.66;1.56;;;;;;;15.81;38.35;102032.66;;;;-52
2021/02/15 05:02:25;;;;;;;1.66;1.55;;;;;;;15.81;38.41;102031.39;;;;-50
2021/02/15 05:05:26;;;;;;;1.60;1.50;;;;;;;15.80;38.48;102037.34;;;;-52
2021/02/15 05:08:25;;;;;;;1.53;1.43;;;;;;;15.80;38.35;102032.81;;;;-54
2021/02/15 05:11:25;;;;;;;1.63;1.53;;;;;;;15.79;38.38;102025.48;;;;-51
2021/02/15 05:14:26;;;;;;;1.60;1.50;;;;;;;15.76;38.42;102023.61;;;;-51
2021/02/15 05:17:25;;;;;;;1.57;1.47;;;;;;;15.76;38.39;102031.92;;;;-51
2021/02/15 05:20:25;;;;;;;1.65;1.55;;;;;;;15.74;38.43;102036.03;;;;-52
2021/02/15 05:23:25;;;;;;;1.50;1.40;;;;;;;15.74;38.40;102042.50;;;;-53
2021/02/15 05:26:25;;;;;;;1.68;1.58;;;;;;;15.74;38.46;102037.80;;;;-51
2021/02/15 05:29:25;;;;;;;1.61;1.51;;;;;;;15.72;38.47;102038.28;;;;-51
2021/02/15 05:32:25;;;;;;;1.60;1.50;;;;;;;15.71;38.44;102031.46;;;;-52
2021/02/15 05:35:25;;;;;;;1.65;1.41;;;;;;;15.69;38.42;102025.83;;;;-50
2021/02/15 05:38:25;;;;;;;1.69;1.59;;;;;;;15.69;38.39;102020.51;;;;-51
2021/02/15 05:41:25;;;;;;;1.69;1.53;;;;;;;15.69;38.43;102011.64;;;;-52
2021/02/15 05:44:25;;;;;;;1.77;1.58;;;;;;;15.68;38.43;102013.96;;;;-50
2021/02/15 05:47:25;;;;;;;1.71;1.61;;;;;;;15.66;38.43;102007.18;;;;-50
2021/02/15 05:50:25;;;;;;;1.61;1.50;;;;;;;15.66;38.48;102005.47;;;;-50
2021/02/15 05:53:25;;;;;;;1.62;1.52;;;;;;;15.65;38.43;102001.01;;;;-52
2021/02/15 05:56:25;;;;;;;1.55;1.45;;;;;;;15.65;38.39;101995.81;;;;-52
2021/02/15 05:59:25;;;;;;;1.59;1.49;;;;;;;15.63;38.53;101989.99;;;;-51
2021/02/15 06:02:25;;;;;;;1.60;1.50;;;;;;;15.62;38.44;101991.87;;;;-51
2021/02/15 06:05:26;;;;;;;1.70;1.60;;;;;;;15.61;38.41;101984.89;;;;-50
2021/02/15 06:08:25;;;;;;;1.57;1.47;;;;;;;15.61;38.47;101978.75;;;;-50
2021/02/15 06:11:25;;;;;;;1.69;1.59;;;;;;;15.60;38.38;101978.34;;;;-53
2021/02/15 06:14:25;;;;;;;1.70;1.60;;;;;;;15.60;38.42;101981.03;;;;-50
2021/02/15 06:17:25;;;;;;;4.81;1.70;;;;;;;15.61;38.78;101982.53;;;;-50
2021/02/15 06:20:25;;;;;;;3.83;2.07;;;;;;;15.46;36.04;101983.95;;;;-48
2021/02/15 06:23:25;;;;;;;2.53;1.81;;;;;;;15.51;37.19;101980.69;;;;-49
2021/02/15 06:26:25;;;;;;;2.03;1.83;;;;;;;15.51;37.44;101977.70;;;;-52
2021/02/15 06:29:25;;;;;;;2.90;1.72;;;;;;;15.51;37.49;101977.38;;;;-51
2021/02/15 06:32:25;;;;;;;4.74;1.87;;;;;;;15.51;37.50;101975.53;;;;-52
2021/02/15 06:35:25;;;;;;;1.89;1.68;;;;;;;15.52;37.67;101981.92;;;;-49
2021/02/15 06:38:25;;;;;;;2.41;1.81;;;;;;;15.51;37.67;101984.42;;;;-53
2021/02/15 06:41:25;;;;;;;3.53;1.79;;;;;;;15.52;37.79;101980.23;;;;-52
2021/02/15 06:44:25;;;;;;;2.02;1.70;;;;;;;15.54;37.77;101985.58;;;;-49
2021/02/15 06:47:25;;;;;;;3.02;1.70;;;;;;;15.56;37.90;101983.02;;;;-52
2021/02/15 06:50:25;;;;;;;3.58;1.85;;;;;;;15.59;37.89;101987.86;;;;-53
2021/02/15 06:53:25;;;;;;;5.75;1.52;;;;;;;15.62;37.98;101981.94;;;;-51
2021/02/15 06:56:25;;;;;;;1.60;1.50;;;;;;;15.66;38.05;101983.16;;;;-52
2021/02/15 06:59:25;;;;;;;2.17;1.56;;;;;;;15.70;38.35;101988.52;;;;-49
2021/02/15 07:02:25;;;;;;;2.30;1.59;;;;;;;15.75;38.53;101994.34;;;;-53
2021/02/15 07:05:26;;;;;;;1.69;1.59;;;;;;;15.79;38.61;101999.70;;;;-51
2021/02/15 07:08:25;;;;;;;1.72;1.54;;;;;;;15.84;38.60;102000.84;;;;-52
2021/02/15 07:11:25;;;;;;;2.81;1.55;;;;;;;15.88;38.61;102000.23;;;;-51
2021/02/15 07:14:25;;;;;;;1.66;1.49;;;;;;;15.93;38.62;101996.80;;;;-52
2021/02/15 07:17:25;;;;;;;1.89;1.59;;;;;;;15.98;38.62;101997.13;;;;-49
2021/02/15 07:20:25;;;;;;;2.29;1.55;;;;;;;16.04;38.68;101998.26;;;;-51
2021/02/15 07:23:25;;;;;;;2.47;1.57;;;;;;;16.11;38.69;102004.41;;;;-52
2021/02/15 07:26:25;;;;;;;2.15;1.50;;;;;;;16.15;38.76;102011.33;;;;-49
2021/02/15 07:29:25;;;;;;;1.67;1.57;;;;;;;16.20;38.80;102006.42;;;;-49
2021/02/15 07:32:25;;;;;;;2.01;1.63;;;;;;;16.25;38.78;102003.59;;;;-49
2021/02/15 07:35:26;;;;;;;1.67;1.43;;;;;;;16.29;38.83;101999.61;;;;-53
2021/02/15 07:38:25;;;;;;;1.46;1.36;;;;;;;16.32;38.75;101996.13;;;;-51
2021/02/15 07:41:25;;;;;;;1.51;1.41;;;;;;;16.35;38.83;102002.31;;;;-51
2021/02/15 07:44:25;;;;;;;1.70;1.60;;;;;;;16.37;38.79;102003.97;;;;-50
2021/02/15 07:47:25;;;;;;;1.61;1.51;;;;;;;16.40;38.80;102008.77;;;;-51
2021/02/15 07:50:25;;;;;;;1.60;1.50;;;;;;;16.42;38.75;102005.21;;;;-49
2021/02/15 07:53:25;;;;;;;1.61;1.51;;;;;;;16.42;38.76;102002.23;;;;-49
2021/02/15 07:56:25;;;;;;;1.60;1.49;;;;;;;16.44;38.70;102008.32;;;;-49
2021/02/15 07:59:25;;;;;;;3.12;1.54;;;;;;;16.45;38.73;102014.41;;;;-51
2021/02/15 08:02:25;;;;;;;3.53;1.50;;;;;;;16.46;38.68;102017.78;;;;-52
2021/02/15 08:05:25;;;;;;;1.60;1.50;;;;;;;16.47;38.66;102012.07;;;;-51
2021/02/15 08:08:25;;;;;;;1.69;1.51;;;;;;;16.47;38.66;102020.16;;;;-51
2021/02/15 08:11:25;;;;;;;1.55;1.44;;;;;;;16.47;38.66;102014.98;;;;-50
2021/02/15 08:14:25;;;;;;;1.51;1.41;;;;;;;16.47;38.62;102014.42;;;;-52
2021/02/15 08:17:25;;;;;;;1.56;1.46;;;;;;;16.47;38.64;102019.67;;;;-49
2021/02/15 08:20:25;;;;;;;2.39;1.41;;;;;;;16.48;38.52;102019.89;;;;-49
2021/02/15 08:23:25;;;;;;;2.73;1.57;;;;;;;16.50;38.62;102017.59;;;;-48
2021/02/15 08:26:25;;;;;;;2.09;1.52;;;;;;;16.52;39.05;102017.84;;;;-51
2021/02/15 08:29:25;;;;;;;1.60;1.50;;;;;;;16.54;39.04;102017.61;;;;-49
2021/02/15 08:32:25;;;;;;;8.49;1.62;;;;;;;16.57;39.07;102021.26;;;;-53
2021/02/15 08:35:25;;;;;;;2.07;1.71;;;;;;;16.59;39.09;102022.55;;;;-54
2021/02/15 08:38:25;;;;;;;1.99;1.52;;;;;;;16.64;39.30;102016.52;;;;-51
2021/02/15 08:41:25;;;;;;;2.66;1.56;;;;;;;16.69;39.41;102014.89;;;;-53
2021/02/15 08:44:25;;;;;;;2.24;1.60;;;;;;;16.74;39.35;102021.33;;;;-51
2021/02/15 08:47:25;;;;;;;1.97;1.59;;;;;;;16.79;39.27;102022.12;;;;-55
2021/02/15 08:50:25;;;;;;;4.76;1.63;;;;;;;16.82;39.11;102014.07;;;;-52
2021/02/15 08:53:25;;;;;;;1.90;1.65;;;;;;;16.83;39.12;102011.07;;;;-51
2021/02/15 08:56:25;;;;;;;2.33;1.51;;;;;;;16.85;39.12;102003.98;;;;-51
2021/02/15 08:59:25;;;;;;;1.74;1.49;;;;;;;16.87;39.08;102007.47;;;;-55
2021/02/15 09:02:25;;;;;;;1.71;1.59;;;;;;;16.90;39.04;102010.06;;;;-54
2021/02/15 09:05:25;;;;;;;4.87;1.72;;;;;;;16.97;39.30;102005.72;;;;-52
2021/02/15 09:08:25;;;;;;;1.67;1.46;;;;;;;17.02;39.78;101999.94;;;;-53
2021/02/15 09:11:25;;;;;;;3.59;1.53;;;;;;;17.09;39.71;101999.16;;;;-54
2021/02/15 09:14:25;;;;;;;2.06;1.58;;;;;;;17.13;39.83;101988.38;;;;-53
2021/02/15 09:17:26;;;;;;;1.65;1.43;;;;;;;17.17;39.84;101988.80;;;;-53
2021/02/15 09:20:25;;;;;;;1.59;1.49;;;;;;;17.20;39.89;101976.55;;;;-55
2021/02/15 09:23:25;;;;;;;1.88;1.49;;;;;;;17.25;39.86;101969.20;;;;-52
2021/02/15 09:26:26;;;;;;;1.43;1.33;;;;;;;17.30;39.86;101962.16;;;;-48
2021/02/15 09:29:25;;;;;;;2.17;1.51;;;;;;;17.34;39.82;101950.81;;;;-55
2021/02/15 09:32:25;;;;;;;1.93;1.55;;;;;;;17.38;39.78;101948.37;;;;-52
2021/02/15 09:35:25;;;;;;;1.71;1.60;;;;;;;17.42;39.74;101939.70;;;;-53
2021/02/15 09:38:25;;;;;;;1.60;1.50;;;;;;;17.48;39.75;101937.50;;;;-53
2021/02/15 09:41:25;;;;;;;3.03;1.44;;;;;;;17.50;39.72;101936.61;;;;-49
2021/02/15 09:44:25;;;;;;;1.65;1.55;;;;;;;17.54;39.72;101948.19;;;;-47
2021/02/15 09:47:25;;;;;;;1.60;1.50;;;;;;;17.57;39.74;101958.12;;;;-53
2021/02/15 09:50:25;;;;;;;1.81;1.44;;;;;;;17.60;39.61;101963.91;;;;-55
2021/02/15 09:53:25;;;;;;;6.74;2.33;;;;;;;17.57;38.06;101966.71;;;;-51
2021/02/15 09:56:25;;;;;;;5.21;2.31;;;;;;;17.57;37.96;101968.07;;;;-56
2021/02/15 09:59:25;;;;;;;4.95;2.22;;;;;;;17.59;37.69;101964.27;;;;-56
2021/02/15 10:02:25;;;;;;;6.46;2.25;;;;;;;17.60;37.70;101962.37;;;;-52
2021/02/15 10:05:25;;;;;;;3.09;2.33;;;;;;;17.60;36.84;101961.89;;;;-58
2021/02/15 10:08:25;;;;;;;5.26;2.21;;;;;;;17.66;38.08;101953.77;;;;-54
2021/02/15 10:11:25;;;;;;;5.13;2.24;;;;;;;17.72;38.17;101957.41;;;;-51
2021/02/15 10:14:25;;;;;;;5.28;2.08;;;;;;;17.79;38.56;101949.63;;;;-49
2021/02/15 10:17:25;;;;;;;5.27;2.01;;;;;;;17.83;38.55;101946.63;;;;-50
2021/02/15 10:20:25;;;;;;;3.95;2.22;;;;;;;17.87;38.55;101947.20;;;;-58
2021/02/15 10:23:25;;;;;;;6.06;2.05;;;;;;;17.92;38.67;101949.97;;;;-49
2021/02/15 10:26:25;;;;;;;4.62;2.11;;;;;;;17.96;38.81;101952.63;;;;-52
2021/02/15 10:29:25;;;;;;;4.07;2.05;;;;;;;17.99;38.81;101947.97;;;;-56
2021/02/15 10:32:25;;;;;;;4.76;2.12;;;;;;;18.02;38.83;101946.83;;;;-54
2021/02/15 10:35:25;;;;;;;4.23;2.17;;;;;;;18.05;38.88;101949.17;;;;-55
2021/02/15 10:38:25;;;;;;;2.81;2.01;;;;;;;18.09;38.88;101948.87;;;;-52
2021/02/15 10:41:25;;;;;;;3.62;2.01;;;;;;;18.13;38.91;101937.33;;;;-57
2021/02/15 10:44:25;;;;;;;2.56;2.03;;;;;;;18.13;39.04;101923.55;;;;-57
2021/02/15 10:47:25;;;;;;;5.97;2.13;;;;;;;18.16;38.90;101923.01;;;;-57
2021/02/15 10:50:25;;;;;;;4.97;2.13;;;;;;;18.18;38.96;101926.41;;;;-51
2021/02/15 10:53:25;;;;;;;6.24;2.09;;;;;;;18.20;38.93;101923.08;;;;-52
2021/02/15 10:56:25;;;;;;;2.67;1.91;;;;;;;18.22;38.96;101910.28;;;;-52
2021/02/15 10:59:25;;;;;;;3.21;1.91;;;;;;;18.25;39.09;101902.38;;;;-54
2021/02/15 11:02:25;;;;;;;2.97;2.01;;;;;;;18.25;39.07;101894.50;;;;-50
2021/02/15 11:05:25;;;;;;;4.05;1.99;;;;;;;18.29;39.06;101893.75;;;;-51
2021/02/15 11:08:25;;;;;;;3.59;1.99;;;;;;;18.29;38.80;101886.12;;;;-52
2021/02/15 11:11:25;;;;;;;3.82;1.78;;;;;;;18.28;38.66;101886.92;;;;-52
2021/02/15 11:14:25;;;;;;;4.04;1.90;;;;;;;18.30;38.63;101889.80;;;;-51
2021/02/15 11:17:25;;;;;;;5.09;2.27;;;;;;;18.29;38.44;101882.38;;;;-50
2021/02/15 11:20:25;;;;;;;3.14;2.14;;;;;;;18.30;38.20;101886.21;;;;-53
2021/02/15 11:23:25;;;;;;;4.91;2.10;;;;;;;18.30;38.16;101883.47;;;;-52
2021/02/15 11:26:26;;;;;;;5.93;2.01;;;;;;;18.31;38.21;101879.86;;;;-52
2021/02/15 11:29:25;;;;;;;3.03;1.98;;;;;;;18.31;38.31;101865.26;;;;-51
2021/02/15 11:32:25;;;;;;;3.65;1.95;;;;;;;18.32;38.28;101870.70;;;;-51
2021/02/15 11:35:25;;;;;;;2.54;1.97;;;;;;;18.33;38.26;101871.25;;;;-51
2021/02/15 11:38:25;;;;;;;3.79;1.97;;;;;;;18.34;38.24;101858.77;;;;-51
2021/02/15 11:41:25;;;;;;;4.11;2.00;;;;;;;18.35;38.26;101858.89;;;;-51
2021/02/15 11:44:25;;;;;;;5.56;2.04;;;;;;;18.36;38.26;101860.61;;;;-51
2021/02/15 11:47:25;;;;;;;2.49;1.98;;;;;;;18.36;38.29;101852.18;;;;-53
2021/02/15 11:50:25;;;;;;;2.89;1.93;;;;;;;18.37;38.30;101844.67;;;;-52
2021/02/15 11:53:25;;;;;;;2.13;1.93;;;;;;;18.39;38.34;101837.19;;;;-52
2021/02/15 11:56:25;;;;;;;3.02;1.91;;;;;;;18.40;38.28;101835.52;;;;-52
2021/02/15 11:59:25;;;;;;;2.50;1.97;;;;;;;18.40;38.36;101834.95;;;;-52
2021/02/15 12:02:25;;;;;;;2.26;2.05;;;;;;;18.43;38.29;101835.79;;;;-52
2021/02/15 12:05:25;;;;;;;2.63;1.90;;;;;;;18.43;38.31;101820.45;;;;-52
2021/02/15 12:08:25;;;;;;;2.06;1.77;;;;;;;18.44;38.21;101817.46;;;;-51
2021/02/15 12:11:25;;;;;;;3.11;1.97;;;;;;;18.45;38.23;101814.67;;;;-52
2021/02/15 12:14:25;;;;;;;2.29;1.74;;;;;;;18.47;38.16;101801.58;;;;-51
2021/02/15 12:17:25;;;;;;;3.94;2.15;;;;;;;18.50;38.27;101792.98;;;;-54
2021/02/15 12:20:25;;;;;;;5.78;2.40;;;;;;;18.54;38.20;101793.52;;;;-51
2021/02/15 12:23:26;;;;;;;5.55;2.23;;;;;;;18.54;38.20;101786.29;;;;-51
2021/02/15 12:26:25;;;;;;;3.89;2.07;;;;;;;18.55;38.27;101781.43;;;;-51
2021/02/15 12:29:25;;;;;;;4.82;2.05;;;;;;;18.55;38.27;101778.58;;;;-51
2021/02/15 12:32:25;;;;;;;4.91;2.32;;;;;;;18.54;37.84;101773.63;;;;-51
2021/02/15 12:35:25;;;;;;;8.39;2.61;;;;;;;18.53;37.75;101772.87;;;;-52
2021/02/15 12:38:25;;;;;;;3.68;2.61;;;;;;;18.52;37.22;101764.22;;;;-53
2021/02/15 12:41:30;;;;;;;4.67;2.86;;;;;;;18.52;37.02;101764.30;;;;-53
2021/02/15 12:44:25;;;;;;;6.11;3.11;;;;;;;18.50;36.64;101752.47;;;;-57
2021/02/15 12:47:25;;;;;;;4.99;2.62;;;;;;;18.50;36.75;101744.18;;;;-54
2021/02/15 12:50:25;;;;;;;3.46;2.83;;;;;;;18.51;36.95;101739.41;;;;-50
2021/02/15 12:53:25;;;;;;;3.41;2.69;;;;;;;18.54;37.05;101733.27;;;;-54
2021/02/15 12:56:25;;;;;;;7.75;2.65;;;;;;;18.59;37.57;101723.50;;;;-51
2021/02/15 12:59:25;;;;;;;8.22;2.66;;;;;;;18.62;37.55;101719.62;;;;-52
2021/02/15 13:02:25;;;;;;;6.84;2.77;;;;;;;18.63;37.14;101721.84;;;;-52
2021/02/15 13:05:25;;;;;;;7.99;2.75;;;;;;;18.64;37.23;101725.53;;;;-52
2021/02/15 13:08:25;;;;;;;4.23;2.59;;;;;;;18.68;37.47;101720.55;;;;-53
2021/02/15 13:11:27;;;;;;;5.55;2.52;;;;;;;18.69;37.64;101712.94;;;;-56
2021/02/15 13:14:25;;;;;;;4.77;2.97;;;;;;;18.66;37.09;101702.70;;;;-49
2021/02/15 13:17:28;;;;;;;5.45;2.87;;;;;;;18.69;37.19;101704.48;;;;-49
2021/02/15 13:20:25;;;;;;;3.53;2.65;;;;;;;18.72;37.40;101703.58;;;;-52
2021/02/15 13:23:25;;;;;;;8.49;2.72;;;;;;;18.77;37.92;101706.75;;;;-55
2021/02/15 13:26:25;;;;;;;5.83;2.64;;;;;;;18.82;38.04;101704.64;;;;-52
2021/02/15 13:29:25;;;;;;;3.72;2.61;;;;;;;18.86;38.73;101700.86;;;;-53
2021/02/15 13:32:25;;;;;;;4.32;2.72;;;;;;;18.91;39.21;101710.53;;;;-51
2021/02/15 13:35:25;;;;;;;5.84;2.54;;;;;;;18.95;38.63;101697.08;;;;-57
2021/02/15 13:38:27;;;;;;;5.87;2.55;;;;;;;18.94;38.42;101687.61;;;;-52
2021/02/15 13:41:25;;;;;;;5.24;2.57;;;;;;;18.95;38.41;101682.53;;;;-50
2021/02/15 13:44:25;;;;;;;3.61;2.49;;;;;;;18.93;38.29;101669.16;;;;-55
2021/02/15 13:47:25;;;;;;;3.69;2.39;;;;;;;18.95;38.36;101664.17;;;;-57
2021/02/15 13:50:25;;;;;;;4.63;2.42;;;;;;;18.95;38.26;101672.55;;;;-54
2021/02/15 13:53:25;;;;;;;3.51;2.59;;;;;;;18.96;38.38;101672.15;;;;-52
2021/02/15 13:56:25;;;;;;;3.49;2.55;;;;;;;18.98;38.42;101675.06;;;;-51
2021/02/15 13:59:25;;;;;;;3.89;2.23;;;;;;;19.02;38.41;101668.59;;;;-55
2021/02/15 14:02:25;;;;;;;3.01;2.17;;;;;;;19.03;38.40;101668.14;;;;-54
2021/02/15 14:05:25;;;;;;;3.67;2.40;;;;;;;19.05;38.46;101661.58;;;;-59
2021/02/15 14:08:25;;;;;;;3.19;2.31;;;;;;;19.04;38.42;101671.89;;;;-53
2021/02/15 14:11:25;;;;;;;5.39;2.45;;;;;;;19.05;38.42;101676.77;;;;-60
2021/02/15 14:14:25;;;;;;;5.87;2.49;;;;;;;19.05;38.33;101672.98;;;;-51
2021/02/15 14:17:25;;;;;;;4.11;2.50;;;;;;;19.06;38.33;101671.38;;;;-55
2021/02/15 14:20:25;;;;;;;3.30;2.55;;;;;;;19.05;38.41;101671.36;;;;-58
2021/02/15 14:23:25;;;;;;;3.71;2.51;;;;;;;19.07;38.46;101666.70;;;;-57
2021/02/15 14:26:25;;;;;;;3.19;2.51;;;;;;;19.07;38.46;101660.53;;;;-50
2021/02/15 14:29:25;;;;;;;3.29;2.21;;;;;;;19.08;38.50;101657.05;;;;-54
2021/02/15 14:32:25;;;;;;;3.08;2.35;;;;;;;19.09;38.50;101650.16;;;;-57
2021/02/15 14:35:25;;;;;;;4.07;2.59;;;;;;;19.09;38.42;101640.73;;;;-51
2021/02/15 14:38:25;;;;;;;2.76;2.33;;;;;;;19.09;38.46;101629.77;;;;-54
2021/02/15 14:41:25;;;;;;;3.24;2.45;;;;;;;19.11;38.46;101623.30;;;;-51
2021/02/15 14:44:26;;;;;;;3.83;2.35;;;;;;;19.14;38.42;101621.13;;;;-52
2021/02/15 14:47:25;;;;;;;4.95;2.54;;;;;;;19.15;38.56;101624.80;;;;-49
2021/02/15 14:50:25;;;;;;;4.21;2.39;;;;;;;19.15;38.52;101614.80;;;;-49
2021/02/15 14:53:25;;;;;;;3.79;2.49;;;;;;;19.16;38.36;101606.97;;;;-51
2021/02/15 14:56:25;;;;;;;4.18;2.56;;;;;;;19.15;38.21;101604.16;;;;-56
2021/02/15 14:59:25;;;;;;;3.45;2.48;;;;;;;19.14;38.09;101596.52;;;;-51
2021/02/15 15:02:25;;;;;;;2.63;2.41;;;;;;;19.15;38.16;101591.48;;;;-55
2021/02/15 15:05:25;;;;;;;3.33;2.34;;;;;;;19.14;38.07;101581.72;;;;-56
2021/02/15 15:08:25;;;;;;;3.28;2.55;;;;;;;19.14;37.99;101571.48;;;;-51
2021/02/15 15:11:25;;;;;;;2.87;2.25;;;;;;;19.14;37.96;101567.02;;;;-51
2021/02/15 15:14:25;;;;;;;3.89;2.40;;;;;;;19.13;37.94;101565.95;;;;-50
2021/02/15 15:17:25;;;;;;;3.72;2.65;;;;;;;19.15;38.01;101552.16;;;;-50
2021/02/15 15:20:26;;;;;;;3.18;2.38;;;;;;;19.16;38.19;101518.72;;;;-52
2021/02/15 15:23:25;;;;;;;3.40;2.89;;;;;;;19.15;38.24;101519.36;;;;-52
2021/02/15 15:26:25;;;;;;;3.37;2.50;;;;;;;19.18;38.23;101519.74;;;;-53
2021/02/15 15:29:25;;;;;;;3.31;2.63;;;;;;;19.22;38.28;101525.28;;;;-47
2021/02/15 15:32:25;;;;;;;3.67;2.61;;;;;;;19.24;38.30;101505.67;;;;-48
2021/02/15 15:35:25;;;;;;;3.67;2.45;;;;;;;19.26;38.26;101489.62;;;;-55
2021/02/15 15:38:25;;;;;;;3.41;2.55;;;;;;;19.27;38.39;101495.25;;;;-51
2021/02/15 15:41:25;;;;;;;2.65;2.43;;;;;;;19.28;38.31;101470.01;;;;-50
2021/02/15 15:44:25;;;;;;;3.95;2.52;;;;;;;19.28;38.29;101455.42;;;;-51
2021/02/15 15:47:25;;;;;;;2.71;2.43;;;;;;;19.32;38.42;101472.59;;;;-56
2021/02/15 15:50:25;;;;;;;4.00;2.53;;;;;;;19.29;38.36;101485.78;;;;-56
2021/02/15 15:53:25;;;;;;;3.62;2.64;;;;;;;19.31;38.45;101487.61;;;;-58
2021/02/15 15:56:25;;;;;;;3.33;2.66;;;;;;;19.32;38.50;101504.23;;;;-53
2021/02/15 15:59:25;;;;;;;2.88;2.56;;;;;;;19.31;38.41;101519.97;;;;-51
2021/02/15 16:02:25;;;;;;;3.29;2.75;;;;;;;19.32;38.48;101518.95;;;;-52
2021/02/15 16:05:25;;;;;;;3.07;2.55;;;;;;;19.32;38.49;101509.28;;;;-52
2021/02/15 16:08:25;;;;;;;3.19;2.57;;;;;;;19.34;38.53;101460.89;;;;-52
2021/02/15 16:11:25;;;;;;;3.47;2.52;;;;;;;19.35;38.47;101460.73;;;;-56
2021/02/15 16:14:25;;;;;;;3.34;2.56;;;;;;;19.35;38.34;101476.66;;;;-54
2021/02/15 16:17:25;;;;;;;3.29;2.58;;;;;;;19.35;38.43;101480.16;;;;-58
2021/02/15 16:20:25;;;;;;;3.67;2.70;;;;;;;19.35;38.55;101480.89;;;;-59
2021/02/15 16:23:25;;;;;;;3.43;2.68;;;;;;;19.36;38.54;101479.95;;;;-59
2021/02/15 16:26:26;;;;;;;3.71;2.75;;;;;;;19.37;38.49;101483.30;;;;-59
2021/02/15 16:29:25;;;;;;;3.14;2.66;;;;;;;19.37;38.57;101478.25;;;;-52
2021/02/15 16:32:25;;;;;;;3.22;2.50;;;;;;;19.41;38.66;101474.52;;;;-49
2021/02/15 16:35:25;;;;;;;3.01;2.63;;;;;;;19.43;38.66;101477.01;;;;-53
2021/02/15 16:38:25;;;;;;;3.35;2.49;;;;;;;19.43;38.73;101471.31;;;;-52
2021/02/15 16:41:26;;;;;;;2.75;2.50;;;;;;;19.44;38.71;101463.20;;;;-51
2021/02/15 16:44:25;;;;;;;2.71;2.43;;;;;;;19.48;38.73;101464.67;;;;-56